Time;durP1;ratioP1;P1;durP2;ratioP2;P2;SDS_P1;SDS_P2;PMS_P1;PMS_P2;Temp;Humidity;BMP_temperature;BMP_pressure;BME280_temperature;BME280_humidity;BME280_pressure;Samples;Min_cycle;Max_cycle;Signal;HPM_P1;HPM_P2
2022/10/22 00:00:23;;;;;;;12.23;4.13;;;;;;;;;;5051620;28;20411;-44
2022/10/22 00:02:49;;;;;;;3.27;2.67;;;;;;;;;;5049766;28;20490;-44
2022/10/22 00:05:15;;;;;;;6.13;3.37;;;;;;;;;;5044528;28;20427;-44
2022/10/22 00:07:41;;;;;;;3.70;3.40;;;;;;;;;;5051394;28;20412;-44
2022/10/22 00:10:07;;;;;;;6.57;3.40;;;;;;;;;;5036798;28;20434;-44
2022/10/22 00:12:34;;;;;;;5.57;3.40;;;;;;;;;;5044459;28;20384;-44
2022/10/22 00:15:00;;;;;;;5.60;3.87;;;;;;;;;;5051424;28;20496;-44
2022/10/22 00:17:26;;;;;;;3.67;3.37;;;;;;;;;;5050896;28;20496;-45
2022/10/22 00:19:51;;;;;;;8.10;3.67;;;;;;;;;;5051561;28;20429;-44
2022/10/22 00:22:17;;;;;;;7.00;3.63;;;;;;;;;;5051453;28;20420;-44
2022/10/22 00:24:43;;;;;;;3.40;3.10;;;;;;;;;;5051389;28;20457;-44
2022/10/22 00:27:10;;;;;;;7.03;3.37;;;;;;;;;;5050983;28;20467;-44
2022/10/22 00:29:36;;;;;;;5.23;3.73;;;;;;;;;;5051486;28;20579;-44
2022/10/22 00:32:02;;;;;;;10.03;4.53;;;;;;;;;;5051334;28;20921;-44
2022/10/22 00:34:28;;;;;;;6.10;3.47;;;;;;;;;;5051331;28;20782;-44
2022/10/22 00:36:55;;;;;;;7.10;3.40;;;;;;;;;;5051103;28;20416;-44
2022/10/22 00:39:22;;;;;;;4.43;3.80;;;;;;;;;;5051447;28;20432;-44
2022/10/22 00:41:49;;;;;;;6.60;3.63;;;;;;;;;;5051543;28;20410;-44
2022/10/22 00:44:34;;;;;;;6.07;3.50;;;;;;;;;;5047961;28;20441;-44
2022/10/22 00:47:00;;;;;;;4.87;3.00;;;;;;;;;;5050822;28;20766;-44
2022/10/22 00:49:26;;;;;;;4.70;3.43;;;;;;;;;;5051245;28;20416;-44
2022/10/22 00:51:52;;;;;;;7.10;3.73;;;;;;;;;;5051338;28;20911;-44
2022/10/22 00:54:18;;;;;;;12.40;5.50;;;;;;;;;;5050952;28;20397;-44
2022/10/22 00:56:43;;;;;;;4.10;3.57;;;;;;;;;;5049646;28;20393;-45
2022/10/22 00:59:11;;;;;;;4.23;3.67;;;;;;;;;;5049540;28;20424;-44
2022/10/22 01:01:37;;;;;;;4.47;3.90;;;;;;;;;;5049474;28;20403;-44
2022/10/22 01:04:03;;;;;;;4.47;3.63;;;;;;;;;;5049033;28;20400;-44
2022/10/22 01:06:31;;;;;;;4.10;3.50;;;;;;;;;;5051149;28;20489;-44
2022/10/22 01:09:09;;;;;;;6.50;4.00;;;;;;;;;;5052598;28;20397;-44
2022/10/22 01:11:53;;;;;;;18.57;3.90;;;;;;;;;;5054234;28;20432;-44
2022/10/22 01:14:29;;;;;;;4.77;3.87;;;;;;;;;;5054602;28;20490;-44
2022/10/22 01:16:58;;;;;;;7.07;4.10;;;;;;;;;;5053078;28;20948;-44
2022/10/22 01:19:40;;;;;;;7.07;3.90;;;;;;;;;;5054678;28;20456;-44
2022/10/22 01:22:16;;;;;;;5.47;4.00;;;;;;;;;;5054742;28;20445;-44
2022/10/22 01:24:42;;;;;;;6.47;3.70;;;;;;;;;;5053275;28;20456;-44
2022/10/22 01:27:17;;;;;;;5.13;4.27;;;;;;;;;;5054187;28;20401;-44
2022/10/22 01:29:49;;;;;;;5.70;4.30;;;;;;;;;;5054526;28;20427;-44
2022/10/22 01:32:17;;;;;;;6.83;5.73;;;;;;;;;;5054305;28;20384;-43
2022/10/22 01:34:45;;;;;;;13.23;3.80;;;;;;;;;;5054592;28;20442;-44
2022/10/22 01:37:13;;;;;;;6.00;4.30;;;;;;;;;;5053671;28;20405;-45
2022/10/22 01:39:39;;;;;;;8.03;4.93;;;;;;;;;;5054445;28;20419;-44
2022/10/22 01:42:06;;;;;;;10.00;4.00;;;;;;;;;;5054389;28;20492;-44
2022/10/22 01:44:33;;;;;;;6.93;3.80;;;;;;;;;;5053835;28;20449;-44
2022/10/22 01:47:02;;;;;;;6.33;4.00;;;;;;;;;;5053601;28;20449;-44
2022/10/22 01:49:33;;;;;;;5.30;4.10;;;;;;;;;;5054166;28;20421;-44
2022/10/22 01:52:07;;;;;;;11.40;4.27;;;;;;;;;;5054299;28;20450;-44
2022/10/22 01:54:39;;;;;;;8.47;4.27;;;;;;;;;;5053129;28;20406;-44
2022/10/22 01:57:28;;;;;;;10.10;4.63;;;;;;;;;;5052414;28;20791;-44
2022/10/22 02:00:06;;;;;;;7.03;4.33;;;;;;;;;;5053937;28;20191;-44
2022/10/22 02:02:37;;;;;;;7.73;4.27;;;;;;;;;;5053713;28;20494;-44
2022/10/22 02:05:06;;;;;;;6.60;3.90;;;;;;;;;;5053642;28;20451;-44
2022/10/22 02:07:37;;;;;;;4.03;3.67;;;;;;;;;;5052164;28;20519;-44
2022/10/22 02:10:03;;;;;;;4.87;3.80;;;;;;;;;;5053667;28;20917;-44
2022/10/22 02:12:30;;;;;;;6.20;4.13;;;;;;;;;;5053531;28;20637;-44
2022/10/22 02:14:57;;;;;;;5.63;4.60;;;;;;;;;;5053576;28;20397;-44
2022/10/22 02:17:23;;;;;;;6.87;4.03;;;;;;;;;;5053029;28;20421;-44
2022/10/22 02:19:54;;;;;;;6.97;4.50;;;;;;;;;;5053493;28;20874;-44
2022/10/22 02:22:20;;;;;;;4.17;3.77;;;;;;;;;;5053231;28;20458;-44
2022/10/22 02:24:48;;;;;;;4.40;3.87;;;;;;;;;;5053473;28;20469;-44
2022/10/22 02:27:32;;;;;;;5.57;4.20;;;;;;;;;;5052738;28;20900;-44
2022/10/22 02:30:04;;;;;;;7.10;4.13;;;;;;;;;;5053369;28;20424;-44
2022/10/22 02:32:32;;;;;;;4.17;3.83;;;;;;;;;;5053162;28;20397;-44
2022/10/22 02:34:58;;;;;;;7.20;4.03;;;;;;;;;;5053358;28;20785;-44
2022/10/22 02:37:25;;;;;;;7.53;3.90;;;;;;;;;;5052562;28;20376;-44
2022/10/22 02:39:52;;;;;;;5.20;4.70;;;;;;;;;;5053163;28;20429;-44
2022/10/22 02:42:18;;;;;;;8.90;4.70;;;;;;;;;;5052960;28;20852;-44
2022/10/22 02:44:44;;;;;;;5.43;4.03;;;;;;;;;;5053120;28;20515;-44
2022/10/22 02:47:10;;;;;;;5.10;4.27;;;;;;;;;;5052279;28;20900;-44
2022/10/22 02:49:36;;;;;;;5.17;4.67;;;;;;;;;;5053146;28;20421;-44
2022/10/22 02:52:02;;;;;;;4.37;4.00;;;;;;;;;;5053016;28;20459;-44
2022/10/22 02:54:28;;;;;;;6.83;3.73;;;;;;;;;;5052893;28;20376;-44
2022/10/22 02:56:53;;;;;;;4.50;4.10;;;;;;;;;;5051923;28;20415;-44
2022/10/22 02:59:19;;;;;;;8.47;5.30;;;;;;;;;;5052746;28;20399;-44
2022/10/22 03:01:45;;;;;;;6.73;4.50;;;;;;;;;;5052740;28;20931;-44
2022/10/22 03:04:11;;;;;;;8.67;4.70;;;;;;;;;;5052688;28;20425;-44
2022/10/22 03:06:37;;;;;;;12.17;4.63;;;;;;;;;;5051921;28;20426;-44
2022/10/22 03:09:03;;;;;;;5.27;4.77;;;;;;;;;;5052602;28;20520;-44
2022/10/22 03:11:29;;;;;;;12.80;5.33;;;;;;;;;;5052646;28;20405;-44
2022/10/22 03:13:55;;;;;;;4.60;3.97;;;;;;;;;;5052419;28;20421;-44
2022/10/22 03:16:21;;;;;;;5.97;4.40;;;;;;;;;;5051735;28;20436;-44
2022/10/22 03:18:47;;;;;;;6.20;4.97;;;;;;;;;;5052350;28;20439;-44
2022/10/22 03:21:21;;;;;;;7.30;4.70;;;;;;;;;;5052496;28;20507;-44
2022/10/22 03:23:47;;;;;;;12.80;4.13;;;;;;;;;;5052334;28;20414;-44
2022/10/22 03:26:13;;;;;;;7.57;5.20;;;;;;;;;;5050791;28;20975;-45
2022/10/22 03:28:40;;;;;;;7.73;4.73;;;;;;;;;;5051445;28;20440;-44
2022/10/22 03:31:06;;;;;;;8.67;5.10;;;;;;;;;;5052235;28;20491;-45
2022/10/22 03:33:32;;;;;;;7.17;5.00;;;;;;;;;;5052177;28;20527;-44
2022/10/22 03:35:58;;;;;;;6.60;4.50;;;;;;;;;;5051732;28;20409;-43
2022/10/22 03:38:24;;;;;;;8.50;5.70;;;;;;;;;;5050635;28;20392;-44
2022/10/22 03:40:50;;;;;;;7.97;5.40;;;;;;;;;;5052794;28;20443;-46
2022/10/22 03:43:16;;;;;;;7.20;5.17;;;;;;;;;;5052357;28;20391;-45
2022/10/22 03:45:42;;;;;;;9.97;5.17;;;;;;;;;;5051628;28;20470;-45
2022/10/22 03:48:08;;;;;;;6.10;5.30;;;;;;;;;;5051495;28;20404;-44
2022/10/22 03:50:34;;;;;;;8.47;5.33;;;;;;;;;;5052090;28;20376;-46
2022/10/22 03:53:00;;;;;;;6.63;4.73;;;;;;;;;;5051921;28;20412;-47
2022/10/22 03:55:26;;;;;;;10.50;5.30;;;;;;;;;;5051754;28;20378;-46
2022/10/22 03:57:52;;;;;;;11.73;5.63;;;;;;;;;;5051374;28;20909;-46
2022/10/22 04:00:18;;;;;;;9.10;5.80;;;;;;;;;;5051353;28;20428;-48
2022/10/22 04:02:44;;;;;;;11.23;5.30;;;;;;;;;;5051190;28;20409;-46
2022/10/22 04:05:10;;;;;;;5.90;4.90;;;;;;;;;;5051853;28;20463;-45
2022/10/22 04:07:36;;;;;;;10.80;5.63;;;;;;;;;;5051000;28;20409;-44
2022/10/22 04:10:02;;;;;;;13.07;5.17;;;;;;;;;;5051748;28;20511;-47
2022/10/22 04:12:28;;;;;;;9.07;6.10;;;;;;;;;;5051568;28;20403;-45
2022/10/22 04:14:54;;;;;;;5.83;5.20;;;;;;;;;;5051677;28;20405;-45
2022/10/22 04:17:20;;;;;;;6.73;5.40;;;;;;;;;;5050904;28;20410;-45
2022/10/22 04:19:46;;;;;;;8.40;5.10;;;;;;;;;;5051583;28;20433;-46
2022/10/22 04:22:12;;;;;;;6.97;5.43;;;;;;;;;;5051727;28;20413;-44
2022/10/22 04:24:38;;;;;;;8.47;6.03;;;;;;;;;;5051657;28;20456;-45
2022/10/22 04:27:04;;;;;;;6.90;5.70;;;;;;;;;;5050994;28;20428;-44
2022/10/22 04:29:29;;;;;;;15.40;6.43;;;;;;;;;;5051290;28;20467;-46
2022/10/22 04:31:55;;;;;;;17.70;7.27;;;;;;;;;;5051690;28;20392;-47
2022/10/22 04:34:21;;;;;;;6.93;5.20;;;;;;;;;;5051394;28;20422;-47
2022/10/22 04:36:47;;;;;;;10.63;5.23;;;;;;;;;;5050973;28;20875;-46
2022/10/22 04:39:14;;;;;;;7.77;5.13;;;;;;;;;;5051226;28;20772;-46
2022/10/22 04:41:39;;;;;;;9.30;5.17;;;;;;;;;;5055495;28;20393;-48
2022/10/22 04:44:06;;;;;;;6.00;5.23;;;;;;;;;;5055223;28;20406;-45
2022/10/22 04:46:33;;;;;;;6.50;5.17;;;;;;;;;;5054790;28;20427;-44
2022/10/22 04:48:59;;;;;;;9.50;5.87;;;;;;;;;;5055225;28;20907;-46
2022/10/22 04:51:26;;;;;;;9.47;5.80;;;;;;;;;;5055417;28;20404;-46
2022/10/22 04:53:52;;;;;;;8.80;5.57;;;;;;;;;;5055088;28;20424;-45
2022/10/22 04:56:20;;;;;;;6.53;5.57;;;;;;;;;;5054683;28;20432;-45
2022/10/22 04:59:00;;;;;;;8.60;5.40;;;;;;;;;;5054598;28;20795;-45
2022/10/22 05:01:27;;;;;;;15.00;6.70;;;;;;;;;;5055273;28;20620;-47
2022/10/22 05:03:54;;;;;;;8.20;6.00;;;;;;;;;;5054938;28;20436;-45
2022/10/22 05:06:21;;;;;;;6.67;5.47;;;;;;;;;;5054449;28;20843;-46
2022/10/22 05:08:48;;;;;;;9.73;5.90;;;;;;;;;;5054569;28;20429;-45
2022/10/22 05:11:15;;;;;;;6.83;5.07;;;;;;;;;;5055236;28;20404;-46
2022/10/22 05:13:41;;;;;;;7.80;5.50;;;;;;;;;;5054902;28;20927;-46
2022/10/22 05:16:07;;;;;;;7.73;5.77;;;;;;;;;;5054363;28;20783;-45
2022/10/22 05:18:34;;;;;;;9.83;6.17;;;;;;;;;;5054633;28;20439;-45
2022/10/22 05:21:00;;;;;;;6.70;5.53;;;;;;;;;;5054917;28;20404;-45
2022/10/22 05:23:27;;;;;;;8.30;5.60;;;;;;;;;;5054396;28;20520;-44
2022/10/22 05:25:53;;;;;;;6.90;5.50;;;;;;;;;;5054169;28;20581;-44
2022/10/22 05:28:19;;;;;;;10.33;5.73;;;;;;;;;;5054589;28;20838;-44
2022/10/22 05:30:55;;;;;;;10.00;5.23;;;;;;;;;;5054634;28;20407;-44
2022/10/22 05:33:21;;;;;;;8.00;5.27;;;;;;;;;;5054472;28;20492;-44
2022/10/22 05:35:47;;;;;;;8.17;6.13;;;;;;;;;;5054376;28;20417;-44
2022/10/22 05:38:13;;;;;;;9.70;6.40;;;;;;;;;;5053837;28;20413;-44
2022/10/22 05:40:39;;;;;;;11.10;5.60;;;;;;;;;;5054683;28;20410;-46
2022/10/22 05:43:05;;;;;;;8.00;6.57;;;;;;;;;;5054274;28;20482;-46
2022/10/22 05:45:31;;;;;;;8.83;5.93;;;;;;;;;;5054110;28;20449;-46
2022/10/22 05:47:57;;;;;;;13.57;6.53;;;;;;;;;;5054259;28;20393;-46
2022/10/22 05:50:23;;;;;;;10.30;6.10;;;;;;;;;;5054110;28;20455;-45
2022/10/22 05:52:49;;;;;;;8.03;6.00;;;;;;;;;;5053165;28;20433;-46
2022/10/22 05:55:15;;;;;;;9.83;5.60;;;;;;;;;;5054209;28;20876;-46
2022/10/22 05:57:41;;;;;;;9.60;6.83;;;;;;;;;;5053675;28;20916;-44
2022/10/22 06:00:07;;;;;;;12.83;8.30;;;;;;;;;;5053880;28;20445;-46
2022/10/22 06:02:33;;;;;;;10.63;6.47;;;;;;;;;;5052525;28;20487;-44
2022/10/22 06:04:59;;;;;;;13.07;7.03;;;;;;;;;;5053337;28;21115;-46
2022/10/22 06:07:25;;;;;;;9.67;7.10;;;;;;;;;;5052805;28;20404;-43
2022/10/22 06:09:52;;;;;;;10.43;7.30;;;;;;;;;;5053053;28;20433;-47
2022/10/22 06:12:18;;;;;;;11.10;7.40;;;;;;;;;;5053552;28;20378;-45
2022/10/22 06:14:44;;;;;;;8.20;6.67;;;;;;;;;;5053733;28;20392;-44
2022/10/22 06:17:11;;;;;;;11.67;7.97;;;;;;;;;;5052513;28;20400;-44
2022/10/22 06:19:37;;;;;;;11.63;7.17;;;;;;;;;;5051973;28;20494;-46
2022/10/22 06:22:04;;;;;;;10.87;7.70;;;;;;;;;;5053441;28;20501;-45
2022/10/22 06:24:30;;;;;;;10.10;7.70;;;;;;;;;;5052457;28;20889;-46
2022/10/22 06:26:56;;;;;;;11.97;8.53;;;;;;;;;;5052223;28;20407;-45
2022/10/22 06:29:22;;;;;;;14.03;8.20;;;;;;;;;;5052580;28;20392;-45
2022/10/22 06:31:48;;;;;;;8.77;7.40;;;;;;;;;;5053651;28;20429;-44
2022/10/22 06:34:14;;;;;;;10.03;8.87;;;;;;;;;;5052512;28;20945;-46
2022/10/22 06:36:43;;;;;;;10.03;8.00;;;;;;;;;;5052044;28;20408;-46
2022/10/22 06:39:14;;;;;;;9.50;7.97;;;;;;;;;;5052770;28;20432;-46
2022/10/22 06:41:40;;;;;;;12.13;9.50;;;;;;;;;;5053465;28;20741;-46
2022/10/22 06:44:06;;;;;;;12.07;7.97;;;;;;;;;;5053447;28;20415;-45
2022/10/22 06:46:32;;;;;;;13.83;8.40;;;;;;;;;;5044457;28;20502;-44
2022/10/22 06:48:59;;;;;;;8.47;7.50;;;;;;;;;;5043673;28;20432;-44
2022/10/22 06:51:26;;;;;;;12.63;8.10;;;;;;;;;;5054403;28;20400;-44
2022/10/22 06:53:53;;;;;;;13.60;8.80;;;;;;;;;;5053262;28;20911;-44
2022/10/22 06:56:20;;;;;;;12.83;8.00;;;;;;;;;;5053411;28;20765;-45
2022/10/22 06:58:47;;;;;;;13.10;8.07;;;;;;;;;;5051666;28;20444;-44
2022/10/22 07:01:14;;;;;;;15.93;8.10;;;;;;;;;;5053515;28;20480;-45
2022/10/22 07:03:40;;;;;;;11.83;7.60;;;;;;;;;;5051966;28;20462;-45
2022/10/22 07:06:08;;;;;;;10.63;8.00;;;;;;;;;;5048842;28;20454;-44
2022/10/22 07:08:34;;;;;;;13.30;8.20;;;;;;;;;;5032118;28;20442;-46
2022/10/22 07:11:06;;;;;;;10.37;7.00;;;;;;;;;;5051719;28;20420;-46
2022/10/22 07:13:32;;;;;;;8.90;6.17;;;;;;;;;;5053500;28;20491;-46
2022/10/22 07:15:58;;;;;;;8.33;5.60;;;;;;;;;;5053698;28;20908;-45
2022/10/22 07:18:24;;;;;;;10.53;5.97;;;;;;;;;;5053375;28;20413;-46
2022/10/22 07:20:50;;;;;;;6.43;5.83;;;;;;;;;;5053560;28;20448;-45
2022/10/22 07:23:16;;;;;;;10.93;5.80;;;;;;;;;;5053373;28;20908;-47
2022/10/22 07:25:42;;;;;;;8.10;5.70;;;;;;;;;;5053019;28;20488;-47
2022/10/22 07:28:08;;;;;;;5.93;5.20;;;;;;;;;;5052962;28;20408;-44
2022/10/22 07:30:35;;;;;;;5.70;5.10;;;;;;;;;;5053168;28;20421;-45
2022/10/22 07:33:01;;;;;;;5.27;4.33;;;;;;;;;;5053071;28;20955;-45
2022/10/22 07:35:27;;;;;;;7.80;4.93;;;;;;;;;;5053522;28;20420;-47
2022/10/22 07:37:53;;;;;;;5.60;5.10;;;;;;;;;;5052987;28;20503;-45
2022/10/22 07:40:19;;;;;;;10.17;5.97;;;;;;;;;;5053360;28;20437;-46
2022/10/22 07:42:45;;;;;;;7.97;5.07;;;;;;;;;;5053319;28;20774;-45
2022/10/22 07:45:11;;;;;;;4.93;4.30;;;;;;;;;;5053612;28;20531;-45
2022/10/22 07:47:37;;;;;;;7.60;3.97;;;;;;;;;;5053027;28;20401;-45
2022/10/22 07:50:03;;;;;;;5.03;4.30;;;;;;;;;;5053397;28;20454;-45
2022/10/22 07:52:29;;;;;;;9.20;4.40;;;;;;;;;;5053057;28;20413;-44
2022/10/22 07:54:55;;;;;;;6.87;4.50;;;;;;;;;;5053298;28;20633;-45
2022/10/22 07:57:21;;;;;;;5.13;4.00;;;;;;;;;;5052898;28;20376;-46
2022/10/22 07:59:47;;;;;;;10.83;4.00;;;;;;;;;;5053362;28;20460;-46
2022/10/22 08:02:13;;;;;;;4.33;3.30;;;;;;;;;;5053208;28;20930;-46
2022/10/22 08:04:39;;;;;;;4.97;3.40;;;;;;;;;;5052617;28;20946;-46
2022/10/22 08:07:05;;;;;;;6.83;3.33;;;;;;;;;;5052536;28;20735;-45
2022/10/22 08:09:31;;;;;;;12.07;3.83;;;;;;;;;;5053294;28;20423;-44
2022/10/22 08:11:57;;;;;;;5.20;3.30;;;;;;;;;;5042636;28;20590;-47
2022/10/22 08:14:23;;;;;;;3.10;2.90;;;;;;;;;;5049554;28;20849;-46
2022/10/22 08:16:49;;;;;;;7.87;3.87;;;;;;;;;;5052565;28;20441;-45
2022/10/22 08:19:20;;;;;;;10.03;2.97;;;;;;;;;;5053021;28;20403;-45
2022/10/22 08:21:46;;;;;;;4.23;3.10;;;;;;;;;;5035857;28;20551;-44
2022/10/22 08:24:13;;;;;;;13.23;3.00;;;;;;;;;;5052340;28;20778;-45
2022/10/22 08:26:39;;;;;;;8.67;3.60;;;;;;;;;;5071225;28;20458;-46
2022/10/22 08:29:05;;;;;;;5.43;4.00;;;;;;;;;;5072559;28;20431;-46
2022/10/22 08:31:31;;;;;;;5.07;3.10;;;;;;;;;;5071648;28;20410;-46
2022/10/22 08:33:57;;;;;;;4.87;3.00;;;;;;;;;;5071737;28;20485;-44
2022/10/22 08:36:23;;;;;;;6.37;3.67;;;;;;;;;;5071541;28;20930;-46
2022/10/22 08:38:49;;;;;;;3.93;2.77;;;;;;;;;;5052325;28;20429;-45
2022/10/22 08:41:17;;;;;;;5.63;3.27;;;;;;;;;;5052329;28;20413;-45
2022/10/22 08:44:02;;;;;;;6.00;2.37;;;;;;;;;;5052004;28;20434;-46
2022/10/22 08:46:33;;;;;;;5.20;2.47;;;;;;;;;;5051694;28;20550;-46
2022/10/22 08:49:04;;;;;;;8.17;2.53;;;;;;;;;;5052553;28;20462;-44
2022/10/22 08:51:32;;;;;;;7.10;2.73;;;;;;;;;;5052561;28;20406;-45
2022/10/22 08:54:17;;;;;;;11.53;3.00;;;;;;;;;;5052189;28;20397;-45
2022/10/22 08:56:45;;;;;;;4.00;2.13;;;;;;;;;;5051858;28;20406;-46
2022/10/22 08:59:17;;;;;;;9.73;2.97;;;;;;;;;;5052349;28;20420;-46
2022/10/22 09:01:45;;;;;;;6.23;2.70;;;;;;;;;;5052171;28;20458;-46
2022/10/22 09:04:26;;;;;;;5.73;2.97;;;;;;;;;;5052250;28;20520;-45
2022/10/22 09:06:53;;;;;;;8.03;2.80;;;;;;;;;;5051858;28;20883;-44
2022/10/22 09:09:20;;;;;;;3.83;2.40;;;;;;;;;;5049265;28;20403;-46
2022/10/22 09:11:53;;;;;;;3.67;3.00;;;;;;;;;;5051283;28;20411;-43
2022/10/22 09:14:20;;;;;;;8.27;3.53;;;;;;;;;;5049059;28;20389;-43
2022/10/22 09:16:52;;;;;;;7.30;3.00;;;;;;;;;;5046929;28;20382;-45
2022/10/22 09:19:25;;;;;;;6.67;2.50;;;;;;;;;;5049921;28;20409;-44
2022/10/22 09:22:09;;;;;;;10.73;2.67;;;;;;;;;;5049153;28;20395;-43
2022/10/22 09:24:36;;;;;;;8.37;3.60;;;;;;;;;;5038972;28;20394;-43
2022/10/22 09:27:02;;;;;;;3.63;1.93;;;;;;;;;;5048885;28;20426;-42
2022/10/22 09:29:34;;;;;;;6.60;2.20;;;;;;;;;;5049473;28;20439;-43
2022/10/22 09:32:00;;;;;;;5.40;2.43;;;;;;;;;;5050934;28;21047;-44
2022/10/22 09:34:27;;;;;;;6.93;2.60;;;;;;;;;;5052178;28;20386;-45
2022/10/22 09:36:57;;;;;;;7.07;3.10;;;;;;;;;;5055144;28;20391;-44
2022/10/22 09:39:28;;;;;;;9.53;3.40;;;;;;;;;;5049267;28;20410;-44
2022/10/22 09:41:54;;;;;;;5.83;3.30;;;;;;;;;;5052337;28;20465;-44
2022/10/22 09:44:20;;;;;;;5.83;2.37;;;;;;;;;;5052698;28;20395;-45
2022/10/22 09:46:46;;;;;;;5.30;2.60;;;;;;;;;;5056516;28;20566;-44
2022/10/22 09:49:13;;;;;;;9.93;2.60;;;;;;;;;;5052652;28;20486;-45
2022/10/22 09:51:54;;;;;;;5.10;2.50;;;;;;;;;;5053238;28;20895;-45
2022/10/22 09:54:24;;;;;;;3.87;2.00;;;;;;;;;;5051182;28;20899;-44
2022/10/22 09:56:52;;;;;;;11.90;2.80;;;;;;;;;;5050503;28;20415;-43
2022/10/22 09:59:24;;;;;;;8.87;2.70;;;;;;;;;;5051973;28;20430;-43
2022/10/22 10:01:56;;;;;;;8.03;2.33;;;;;;;;;;5068135;28;20391;-43
2022/10/22 10:04:22;;;;;;;3.47;2.30;;;;;;;;;;5072663;28;20489;-44
2022/10/22 10:06:53;;;;;;;4.63;2.23;;;;;;;;;;5072697;28;20529;-44
2022/10/22 10:09:21;;;;;;;5.40;2.80;;;;;;;;;;5054962;28;20497;-44
2022/10/22 10:12:06;;;;;;;11.90;2.90;;;;;;;;;;5054052;28;20388;-43
2022/10/22 10:14:41;;;;;;;8.63;2.90;;;;;;;;;;5053993;28;20380;-45
2022/10/22 10:17:13;;;;;;;6.60;2.60;;;;;;;;;;5053229;28;20495;-45
2022/10/22 10:19:42;;;;;;;3.10;1.80;;;;;;;;;;5053681;28;20786;-45
2022/10/22 10:22:11;;;;;;;4.80;2.33;;;;;;;;;;5052276;28;20392;-45
2022/10/22 10:24:40;;;;;;;6.07;2.93;;;;;;;;;;5053062;28;20416;-45
2022/10/22 10:27:14;;;;;;;5.03;2.37;;;;;;;;;;5053588;28;20384;-43
2022/10/22 10:29:41;;;;;;;5.17;2.33;;;;;;;;;;5053302;28;20406;-43
2022/10/22 10:32:15;;;;;;;7.43;2.40;;;;;;;;;;5053469;28;20872;-43
2022/10/22 10:34:47;;;;;;;3.93;2.50;;;;;;;;;;5052017;28;20751;-43
2022/10/22 10:37:22;;;;;;;6.80;2.07;;;;;;;;;;5052623;28;20514;-43
2022/10/22 10:40:04;;;;;;;6.00;2.40;;;;;;;;;;5051812;28;20411;-44
2022/10/22 10:42:40;;;;;;;5.27;2.10;;;;;;;;;;5053342;28;20386;-46
2022/10/22 10:45:18;;;;;;;5.83;2.20;;;;;;;;;;5053404;28;20899;-44
2022/10/22 10:47:53;;;;;;;10.17;2.60;;;;;;;;;;5052436;28;20378;-43
2022/10/22 10:50:22;;;;;;;2.80;2.40;;;;;;;;;;5053022;28;20442;-43
2022/10/22 10:52:57;;;;;;;4.60;2.80;;;;;;;;;;5052562;28;20500;-43
2022/10/22 10:55:32;;;;;;;4.50;2.33;;;;;;;;;;5052731;28;20521;-43
2022/10/22 10:58:16;;;;;;;3.50;2.43;;;;;;;;;;5052251;28;20382;-44
2022/10/22 11:01:03;;;;;;;4.60;2.10;;;;;;;;;;5053030;28;20543;-44
2022/10/22 11:03:45;;;;;;;3.43;2.00;;;;;;;;;;5052470;28;20880;-44
2022/10/22 11:06:14;;;;;;;7.07;2.80;;;;;;;;;;5052206;28;20471;-44
2022/10/22 11:08:44;;;;;;;7.90;2.10;;;;;;;;;;5052523;28;20800;-44
2022/10/22 11:11:19;;;;;;;5.23;2.00;;;;;;;;;;5052629;28;20784;-43
2022/10/22 11:13:49;;;;;;;2.43;1.67;;;;;;;;;;5052433;28;20421;-44
2022/10/22 11:16:15;;;;;;;3.63;1.63;;;;;;;;;;5052037;28;20898;-44
2022/10/22 11:19:03;;;;;;;3.30;2.13;;;;;;;;;;5052065;28;20432;-44
2022/10/22 11:21:32;;;;;;;9.13;2.10;;;;;;;;;;5048460;28;20428;-44
2022/10/22 11:24:09;;;;;;;7.17;2.20;;;;;;;;;;5032738;28;20758;-44
2022/10/22 11:26:38;;;;;;;3.40;1.80;;;;;;;;;;5040721;28;20449;-44
2022/10/22 11:29:07;;;;;;;4.33;1.90;;;;;;;;;;5052125;28;20885;-43
2022/10/22 11:31:33;;;;;;;2.90;1.63;;;;;;;;;;5052021;28;20888;-44
2022/10/22 11:33:59;;;;;;;2.73;1.50;;;;;;;;;;5051504;28;20408;-44
2022/10/22 11:36:26;;;;;;;3.93;1.80;;;;;;;;;;5049434;28;20910;-44
2022/10/22 11:38:52;;;;;;;6.23;2.23;;;;;;;;;;5050320;28;20440;-43
2022/10/22 11:41:23;;;;;;;6.33;1.60;;;;;;;;;;5051865;28;20414;-44
2022/10/22 11:43:58;;;;;;;3.93;2.80;;;;;;;;;;5051973;28;20486;-43
2022/10/22 11:46:24;;;;;;;5.20;2.73;;;;;;;;;;5050923;28;20807;-43
2022/10/22 11:49:09;;;;;;;4.20;1.70;;;;;;;;;;5051378;28;20932;-44
2022/10/22 11:51:37;;;;;;;3.50;2.50;;;;;;;;;;5051919;28;20904;-44
2022/10/22 11:54:21;;;;;;;6.50;1.70;;;;;;;;;;5051690;28;20853;-44
2022/10/22 11:56:51;;;;;;;4.60;2.40;;;;;;;;;;5050985;28;20413;-44
2022/10/22 11:59:33;;;;;;;4.13;1.70;;;;;;;;;;5051440;28;20410;-44
2022/10/22 12:01:59;;;;;;;3.90;1.73;;;;;;;;;;5051783;28;20444;-44
2022/10/22 12:04:39;;;;;;;6.23;1.87;;;;;;;;;;5051510;28;20839;-44
2022/10/22 12:07:25;;;;;;;4.00;1.73;;;;;;;;;;5050877;28;20387;-44
2022/10/22 12:09:51;;;;;;;3.43;1.47;;;;;;;;;;5051316;28;20572;-44
2022/10/22 12:12:19;;;;;;;3.30;1.67;;;;;;;;;;5051472;28;20398;-44
2022/10/22 12:14:53;;;;;;;3.53;1.23;;;;;;;;;;5051372;28;20476;-45
2022/10/22 12:17:21;;;;;;;2.50;1.67;;;;;;;;;;5051063;28;20531;-44
2022/10/22 12:20:07;;;;;;;3.53;3.07;;;;;;;;;;5051423;28;20413;-44
2022/10/22 12:22:37;;;;;;;8.93;1.63;;;;;;;;;;5051369;28;20389;-43
2022/10/22 12:25:09;;;;;;;6.57;1.80;;;;;;;;;;5051110;28;20915;-44
2022/10/22 12:27:37;;;;;;;5.90;1.77;;;;;;;;;;5051267;28;20413;-44
2022/10/22 12:30:16;;;;;;;2.90;1.57;;;;;;;;;;5051364;28;20943;-44
2022/10/22 12:32:42;;;;;;;5.37;1.93;;;;;;;;;;5050984;28;20856;-44
2022/10/22 12:35:11;;;;;;;6.77;2.10;;;;;;;;;;5051234;28;20424;-44
2022/10/22 12:37:37;;;;;;;5.63;1.73;;;;;;;;;;5050920;28;20409;-44
2022/10/22 12:40:16;;;;;;;5.60;1.43;;;;;;;;;;5051267;28;20903;-44
2022/10/22 12:42:47;;;;;;;2.80;1.60;;;;;;;;;;5064989;28;20972;-43
2022/10/22 12:45:13;;;;;;;3.43;1.53;;;;;;;;;;5070992;28;20426;-44
2022/10/22 12:47:39;;;;;;;3.37;1.63;;;;;;;;;;5070513;28;20411;-44
2022/10/22 12:50:05;;;;;;;3.07;1.60;;;;;;;;;;5071289;28;20751;-43
2022/10/22 12:52:31;;;;;;;4.50;1.50;;;;;;;;;;5070874;28;20436;-44
2022/10/22 12:54:57;;;;;;;4.27;1.70;;;;;;;;;;5071200;28;20456;-44
2022/10/22 12:57:24;;;;;;;2.40;1.87;;;;;;;;;;5070104;28;20470;-44
2022/10/22 12:59:51;;;;;;;5.50;1.73;;;;;;;;;;5071068;28;20806;-43
2022/10/22 13:02:17;;;;;;;2.70;1.50;;;;;;;;;;5074095;28;20463;-44
2022/10/22 13:05:03;;;;;;;5.30;2.80;;;;;;;;;;5067251;28;20946;-43
2022/10/22 13:07:38;;;;;;;2.97;1.90;;;;;;;;;;5052283;28;20875;-44
2022/10/22 13:10:15;;;;;;;7.33;2.50;;;;;;;;;;5054667;28;20513;-43
2022/10/22 13:12:43;;;;;;;3.57;1.70;;;;;;;;;;5052752;28;20432;-43
2022/10/22 13:15:19;;;;;;;3.57;2.07;;;;;;;;;;5054770;28;20406;-44
2022/10/22 13:17:47;;;;;;;2.30;1.40;;;;;;;;;;5066367;28;20425;-44
2022/10/22 13:20:20;;;;;;;1.93;1.70;;;;;;;;;;5074502;28;20405;-43
2022/10/22 13:23:02;;;;;;;5.53;1.57;;;;;;;;;;5061948;28;20398;-43
2022/10/22 13:25:36;;;;;;;4.90;1.80;;;;;;;;;;5054571;28;20536;-43
2022/10/22 13:28:02;;;;;;;2.83;1.87;;;;;;;;;;5053935;28;20415;-44
2022/10/22 13:30:38;;;;;;;4.00;1.80;;;;;;;;;;5037891;28;20405;-43
2022/10/22 13:33:27;;;;;;;6.33;1.83;;;;;;;;;;5048547;28;20791;-43
2022/10/22 13:35:54;;;;;;;4.77;1.37;;;;;;;;;;5053687;28;20419;-43
2022/10/22 13:38:21;;;;;;;2.20;1.40;;;;;;;;;;5053188;28;20425;-44
2022/10/22 13:40:48;;;;;;;6.03;1.90;;;;;;;;;;5054112;28;20404;-44
2022/10/22 13:43:14;;;;;;;2.63;1.53;;;;;;;;;;5053636;28;20380;-44
2022/10/22 13:45:40;;;;;;;4.80;1.60;;;;;;;;;;5053130;28;20795;-44
2022/10/22 13:48:09;;;;;;;5.07;2.30;;;;;;;;;;5053266;28;20397;-44
2022/10/22 13:50:35;;;;;;;5.43;2.67;;;;;;;;;;5053805;28;20935;-44
2022/10/22 13:53:01;;;;;;;9.47;2.77;;;;;;;;;;5053622;28;20483;-43
2022/10/22 13:55:28;;;;;;;4.60;2.00;;;;;;;;;;5058219;28;20414;-43
2022/10/22 13:58:09;;;;;;;5.33;2.53;;;;;;;;;;5073113;28;20978;-44
2022/10/22 14:00:37;;;;;;;8.67;2.97;;;;;;;;;;5068211;28;20396;-44
2022/10/22 14:03:03;;;;;;;2.90;2.43;;;;;;;;;;5053568;28;20421;-43
2022/10/22 14:05:31;;;;;;;5.63;1.80;;;;;;;;;;5053818;28;20567;-44
2022/10/22 14:07:59;;;;;;;5.90;2.17;;;;;;;;;;5052611;28;20897;-44
2022/10/22 14:10:25;;;;;;;2.00;1.50;;;;;;;;;;5057032;28;20433;-44
2022/10/22 14:12:54;;;;;;;2.97;1.63;;;;;;;;;;5064215;28;20492;-44
2022/10/22 14:15:22;;;;;;;3.13;1.47;;;;;;;;;;5059608;28;20510;-44
2022/10/22 14:17:51;;;;;;;16.03;5.00;;;;;;;;;;5047091;28;20413;-44
2022/10/22 14:20:19;;;;;;;5.80;1.73;;;;;;;;;;5051912;28;20432;-44
2022/10/22 14:22:46;;;;;;;9.63;2.20;;;;;;;;;;5053580;28;20394;-44
2022/10/22 14:25:14;;;;;;;3.20;1.80;;;;;;;;;;5053349;28;20449;-44
2022/10/22 14:27:40;;;;;;;4.27;2.80;;;;;;;;;;5052872;28;20430;-44
2022/10/22 14:30:06;;;;;;;4.90;4.00;;;;;;;;;;5053067;28;20425;-44
2022/10/22 14:32:32;;;;;;;4.20;1.60;;;;;;;;;;5031457;28;20697;-44
2022/10/22 14:34:58;;;;;;;5.87;1.93;;;;;;;;;;5031573;28;20794;-44
2022/10/22 14:37:24;;;;;;;4.43;1.70;;;;;;;;;;5049638;28;20384;-44
2022/10/22 14:39:52;;;;;;;3.13;1.70;;;;;;;;;;5051291;28;20761;-44
2022/10/22 14:42:19;;;;;;;3.73;2.00;;;;;;;;;;5051211;28;20412;-45
2022/10/22 14:44:46;;;;;;;2.40;1.70;;;;;;;;;;5051521;28;20377;-45
2022/10/22 14:47:11;;;;;;;1.87;1.77;;;;;;;;;;5051685;28;20412;-45
2022/10/22 14:49:37;;;;;;;4.23;2.00;;;;;;;;;;5052871;28;20411;-45